Time;durP1;ratioP1;P1;durP2;ratioP2;P2;SDS_P1;SDS_P2;PMS_P1;PMS_P2;Temp;Humidity;BMP_temperature;BMP_pressure;BME280_temperature;BME280_humidity;BME280_pressure;Samples;Min_cycle;Max_cycle;Signal;HPM_P1;HPM_P2
2021/08/26 00:00:06;;;;;;;;;22.00;20.33;;;;;16.77;64.27;101535.94;5070187;27;45396;-68
2021/08/26 00:07:59;;;;;;;;;18.67;18.33;;;;;16.67;64.28;101551.84;5058171;28;45360;-69
2021/08/26 00:10:25;;;;;;;;;20.00;17.67;;;;;16.65;64.79;101540.50;5058261;28;45448;-70
2021/08/26 00:12:53;;;;;;;;;19.00;17.33;;;;;16.60;64.42;101542.72;5057312;28;45400;-69
2021/08/26 00:15:19;;;;;;;;;21.33;17.00;;;;;16.60;64.65;101534.78;5054932;28;45203;-67
2021/08/26 00:17:47;;;;;;;;;19.00;18.33;;;;;16.57;65.10;101555.44;5057315;28;46045;-69
2021/08/26 00:20:13;;;;;;;;;19.00;17.00;;;;;16.53;65.01;101548.69;5057869;28;45523;-68
2021/08/26 00:22:39;;;;;;;;;21.33;19.00;;;;;16.49;64.75;101551.63;5058075;28;47073;-70
2021/08/26 00:25:06;;;;;;;;;21.00;15.00;;;;;16.48;64.85;101557.06;5056632;28;45464;-68
2021/08/26 00:27:32;;;;;;;;;21.00;20.00;;;;;16.48;65.13;101554.41;5057088;28;45369;-70
2021/08/26 00:29:57;;;;;;;;;20.00;19.33;;;;;16.47;65.48;101552.72;5057745;28;45394;-70
2021/08/26 00:32:23;;;;;;;;;24.00;18.00;;;;;16.46;65.79;101559.00;5057176;28;46352;-68
2021/08/26 00:34:48;;;;;;;;;20.67;20.67;;;;;16.43;65.57;101554.81;5057329;28;45468;-68
2021/08/26 00:37:13;;;;;;;;;21.33;20.00;;;;;16.40;65.90;101559.53;5059095;28;45401;-69
2021/08/26 00:39:39;;;;;;;;;26.00;20.00;;;;;16.34;65.97;101555.59;5060773;28;45480;-68
2021/08/26 00:42:06;;;;;;;;;20.33;20.33;;;;;16.32;66.44;101563.69;5058816;28;46345;-68
2021/08/26 00:44:31;;;;;;;;;23.67;20.33;;;;;16.28;66.57;101556.13;5057016;28;45515;-68
2021/08/26 00:46:56;;;;;;;;;21.00;17.67;;;;;16.25;66.44;101557.22;5057556;28;45408;-69
2021/08/26 00:49:22;;;;;;;;;20.67;18.33;;;;;16.24;66.63;101544.97;5039416;28;45384;-69
2021/08/26 00:51:48;;;;;;;;;24.33;20.33;;;;;16.20;66.80;101548.00;5056657;28;45988;-68
2021/08/26 00:54:13;;;;;;;;;26.00;21.67;;;;;16.14;67.33;101550.19;5056535;28;45422;-71
2021/08/26 00:56:39;;;;;;;;;13.67;10.67;;;;;16.10;67.24;101545.25;5057811;28;45397;-71
2021/08/26 00:59:06;;;;;;;;;22.33;20.67;;;;;16.08;67.65;101552.53;5058134;28;45491;-70
2021/08/26 01:01:47;;;;;;;;;18.67;18.67;;;;;16.03;68.02;101549.41;5058011;28;45443;-71
2021/08/26 01:04:21;;;;;;;;;21.00;17.00;;;;;16.00;67.45;101548.69;5041887;28;45370;-70
2021/08/26 01:07:04;;;;;;;;;19.67;18.00;;;;;15.96;67.95;101539.34;5056101;28;45519;-71
2021/08/26 01:09:38;;;;;;;;;14.33;14.33;;;;;15.93;68.09;101542.25;5056006;28;45451;-71
2021/08/26 01:12:04;;;;;;;;;18.33;17.00;;;;;15.92;67.86;101534.41;5058476;28;45313;-71
2021/08/26 01:14:30;;;;;;;;;19.67;18.00;;;;;15.92;68.04;101550.31;5058160;28;45313;-71
2021/08/26 01:16:55;;;;;;;;;24.33;18.00;;;;;15.87;67.68;101542.75;5058865;28;45370;-70
2021/08/26 01:19:20;;;;;;;;;15.33;15.33;;;;;15.89;68.45;101532.03;5058387;28;45352;-71
2021/08/26 01:21:46;;;;;;;;;15.00;15.00;;;;;15.88;67.92;101533.84;5057945;28;47275;-70
2021/08/26 01:24:16;;;;;;;;;19.67;15.67;;;;;15.87;67.67;101532.16;5057687;28;45383;-70
2021/08/26 01:26:45;;;;;;;;;17.00;14.33;;;;;15.82;68.19;101537.00;5057559;28;45432;-70
2021/08/26 01:29:13;;;;;;;;;15.33;13.33;;;;;15.78;68.05;101532.91;5055945;28;45457;-70
2021/08/26 01:31:39;;;;;;;;;15.33;12.33;;;;;15.75;68.77;101539.31;5056426;28;46095;-70
2021/08/26 01:34:06;;;;;;;;;12.67;11.33;;;;;15.74;68.07;101526.19;5056274;28;45639;-69
2021/08/26 01:36:33;;;;;;;;;15.00;12.33;;;;;15.73;67.99;101519.22;5071282;27;45383;-70
2021/08/26 01:39:06;;;;;;;;;9.67;9.67;;;;;15.72;68.75;101522.81;5056833;28;45419;-69
2021/08/26 01:41:39;;;;;;;;;15.00;12.33;;;;;15.64;68.13;101511.03;5056695;28;47087;-69
2021/08/26 01:44:05;;;;;;;;;11.00;10.33;;;;;15.64;68.33;101516.34;5056529;28;45440;-68
2021/08/26 01:46:30;;;;;;;;;12.00;10.67;;;;;15.66;68.56;101518.88;5057274;28;45502;-69
2021/08/26 01:48:56;;;;;;;;;11.33;11.33;;;;;15.66;68.44;101521.53;5036995;28;45385;-70
2021/08/26 01:51:21;;;;;;;;;14.00;10.00;;;;;15.66;68.91;101522.34;5055669;28;45937;-69
2021/08/26 01:53:48;;;;;;;;;10.33;10.00;;;;;15.70;68.24;101525.59;5056211;28;45459;-70
2021/08/26 01:56:13;;;;;;;;;11.33;10.67;;;;;15.70;68.01;101517.66;5056481;28;45553;-69
2021/08/26 01:58:39;;;;;;;;;10.00;9.00;;;;;15.69;68.16;101515.97;5056381;28;45588;-69
2021/08/26 02:01:04;;;;;;;;;11.00;9.33;;;;;15.70;68.19;101514.16;5056514;28;45292;-70
2021/08/26 02:03:29;;;;;;;;;12.67;10.67;;;;;15.67;68.13;101516.09;5055288;28;45353;-69
2021/08/26 02:05:55;;;;;;;;;10.33;9.00;;;;;15.66;68.59;101517.06;5055513;28;45307;-69
2021/08/26 02:08:20;;;;;;;;;12.00;11.33;;;;;15.63;68.42;101512.03;5055956;28;45356;-71
2021/08/26 02:10:45;;;;;;;;;10.00;10.00;;;;;15.59;68.69;101510.59;5054958;27;45768;-69
2021/08/26 02:13:11;;;;;;;;;12.00;10.67;;;;;15.51;68.78;101513.03;5055877;28;45405;-69
2021/08/26 02:15:36;;;;;;;;;10.67;9.67;;;;;15.49;69.34;101518.47;5055455;28;45361;-70
2021/08/26 02:18:01;;;;;;;;;10.00;9.00;;;;;15.49;68.67;101512.31;5055654;28;45408;-69
2021/08/26 02:20:27;;;;;;;;;15.67;11.33;;;;;15.49;68.53;101512.31;5055856;28;46880;-70
2021/08/26 02:22:52;;;;;;;;;11.00;10.00;;;;;15.49;68.70;101512.31;5055773;28;45547;-69
2021/08/26 02:25:17;;;;;;;;;14.00;13.00;;;;;15.51;68.96;101515.69;5055825;28;45577;-69
2021/08/26 02:27:43;;;;;;;;;15.33;12.67;;;;;15.48;69.04;101513.31;5055126;28;45317;-70
2021/08/26 02:30:09;;;;;;;;;12.33;11.00;;;;;15.49;69.15;101522.91;5055575;28;46763;-69
2021/08/26 02:32:35;;;;;;;;;12.00;12.00;;;;;15.47;69.47;101515.09;5055405;28;45518;-70
2021/08/26 02:35:01;;;;;;;;;14.67;11.00;;;;;15.44;68.97;101517.16;5056012;28;45515;-68
2021/08/26 02:37:27;;;;;;;;;14.33;12.33;;;;;15.40;69.24;101513.94;5055721;28;45437;-70
2021/08/26 02:39:52;;;;;;;;;14.33;12.00;;;;;15.36;69.27;101523.09;5056000;28;46873;-69
2021/08/26 02:42:17;;;;;;;;;15.33;13.33;;;;;15.31;69.70;101518.16;5046861;28;45339;-69
2021/08/26 02:44:43;;;;;;;;;11.67;10.00;;;;;15.31;69.49;101517.34;5062246;28;45426;-69
2021/08/26 02:47:08;;;;;;;;;13.00;12.00;;;;;15.31;69.89;101518.16;5062197;28;45447;-68
2021/08/26 02:49:33;;;;;;;;;13.00;10.67;;;;;15.27;69.53;101510.59;5057484;28;46400;-70
2021/08/26 02:51:59;;;;;;;;;10.33;9.33;;;;;15.28;69.70;101510.50;5059165;27;45276;-69
2021/08/26 02:54:24;;;;;;;;;13.00;12.00;;;;;15.28;69.79;101505.19;5041834;28;45354;-69
2021/08/26 02:56:50;;;;;;;;;12.00;10.00;;;;;15.25;69.54;101508.09;5059422;28;45431;-69
2021/08/26 02:59:15;;;;;;;;;12.00;10.67;;;;;15.25;69.65;101510.72;5058558;28;47385;-70
2021/08/26 03:01:40;;;;;;;;;10.00;8.00;;;;;15.25;69.77;101508.09;5058758;28;45461;-70
2021/08/26 03:04:06;;;;;;;;;6.33;5.00;;;;;15.20;69.74;101512.91;5059054;28;45609;-69
2021/08/26 03:06:31;;;;;;;;;12.67;10.33;;;;;15.16;69.60;101500.91;5057802;28;45538;-70
2021/08/26 03:08:56;;;;;;;;;14.33;12.00;;;;;15.14;69.88;101503.69;5058452;28;46173;-69
2021/08/26 03:11:22;;;;;;;;;11.00;11.00;;;;;15.13;69.54;101503.81;5037646;28;46076;-69
2021/08/26 03:13:47;;;;;;;;;17.33;11.00;;;;;15.15;69.68;101499.22;5048065;28;45817;-70
2021/08/26 03:16:13;;;;;;;;;15.00;13.00;;;;;15.19;69.71;101495.34;5058972;27;45487;-69
2021/08/26 03:18:38;;;;;;;;;10.33;10.00;;;;;15.22;69.76;101505.69;5057487;28;45475;-68
2021/08/26 03:21:04;;;;;;;;;12.00;11.00;;;;;15.24;69.59;101503.75;5058604;28;45394;-68
2021/08/26 03:23:29;;;;;;;;;13.33;10.00;;;;;15.26;69.70;101496.53;5059759;28;45574;-70
2021/08/26 03:25:54;;;;;;;;;17.67;10.67;;;;;15.29;69.33;101496.28;5058633;28;45740;-69
2021/08/26 03:28:20;;;;;;;;;13.67;12.00;;;;;15.31;69.47;101499.66;5058542;28;46319;-69
2021/08/26 03:30:46;;;;;;;;;11.00;11.00;;;;;15.32;69.58;101490.75;5055846;28;45420;-69
2021/08/26 03:33:12;;;;;;;;;9.00;9.00;;;;;15.31;69.43;101491.69;5058078;28;45460;-69
2021/08/26 03:35:37;;;;;;;;;10.67;10.00;;;;;15.29;69.38;101490.16;5058392;27;45481;-69
2021/08/26 03:38:03;;;;;;;;;11.00;11.00;;;;;15.24;69.36;101493.16;5058166;28;46858;-70
2021/08/26 03:40:28;;;;;;;;;13.00;10.00;;;;;15.17;69.16;101489.34;5058379;27;45468;-69
2021/08/26 03:42:53;;;;;;;;;13.00;11.00;;;;;15.13;69.44;101504.63;5058789;28;45404;-68
2021/08/26 03:45:19;;;;;;;;;12.00;10.67;;;;;15.10;69.43;101496.09;5056250;28;45423;-68
2021/08/26 03:47:44;;;;;;;;;9.00;8.00;;;;;15.04;69.63;101492.16;5059101;28;46297;-70
2021/08/26 03:50:10;;;;;;;;;12.33;11.33;;;;;15.08;69.53;101503.34;5040922;28;45539;-69
2021/08/26 03:52:35;;;;;;;;;13.00;10.00;;;;;15.10;69.54;101496.94;5059867;28;45564;-69
2021/08/26 03:55:04;;;;;;;;;9.00;7.67;;;;;15.12;69.77;101504.75;5060583;28;45467;-70
2021/08/26 03:57:29;;;;;;;;;12.33;9.67;;;;;15.10;69.63;101501.38;5058621;28;45511;-68
2021/08/26 03:59:55;;;;;;;;;8.00;8.00;;;;;15.08;69.69;101495.41;5061762;28;45465;-69
2021/08/26 04:02:21;;;;;;;;;8.67;8.67;;;;;15.09;69.62;101500.56;5059364;28;45297;-71
2021/08/26 04:04:46;;;;;;;;;9.67;8.33;;;;;15.12;69.61;101494.19;5057916;28;45443;-70
2021/08/26 04:07:12;;;;;;;;;8.67;8.67;;;;;15.12;69.72;101496.81;5056828;28;45449;-70
2021/08/26 04:09:37;;;;;;;;;9.00;8.67;;;;;15.12;69.45;101499.47;5057150;28;45259;-70
2021/08/26 04:12:03;;;;;;;;;12.00;9.33;;;;;15.12;69.63;101502.13;5057572;28;45529;-70
2021/08/26 04:14:28;;;;;;;;;8.00;8.00;;;;;15.10;69.58;101498.75;5058062;28;45431;-69
2021/08/26 04:16:54;;;;;;;;;8.67;8.33;;;;;15.12;69.54;101499.47;5039511;28;48094;-69
2021/08/26 04:19:19;;;;;;;;;8.67;7.67;;;;;15.11;69.49;101503.91;5058116;28;45373;-69
2021/08/26 04:21:44;;;;;;;;;8.00;8.00;;;;;15.10;69.55;101507.53;5057603;28;45210;-69
2021/08/26 04:24:10;;;;;;;;;10.00;7.33;;;;;15.10;69.50;101502.25;5058262;28;45417;-70
2021/08/26 04:26:35;;;;;;;;;6.67;6.67;;;;;15.10;69.27;101504.03;5057787;28;46136;-70
2021/08/26 04:29:00;;;;;;;;;10.00;8.00;;;;;15.13;69.35;101501.97;5057702;27;47643;-70
2021/08/26 04:31:26;;;;;;;;;8.00;8.00;;;;;15.13;69.30;101504.63;5057420;28;45449;-70
2021/08/26 04:33:51;;;;;;;;;7.00;7.00;;;;;15.13;69.61;101509.09;5057799;28;45426;-70
2021/08/26 04:36:16;;;;;;;;;8.33;6.67;;;;;15.09;69.27;101497.06;5057425;28;45413;-69
2021/08/26 04:38:42;;;;;;;;;11.33;8.00;;;;;15.09;69.64;101494.41;5057835;28;45730;-70
2021/08/26 04:41:07;;;;;;;;;7.33;7.33;;;;;15.08;69.47;101493.59;5058022;28;45495;-70
2021/08/26 04:43:33;;;;;;;;;8.67;7.67;;;;;15.07;69.49;101488.41;5058031;28;45460;-70
2021/08/26 04:45:58;;;;;;;;;12.00;8.00;;;;;15.06;69.52;101487.56;5057203;28;45939;-71
2021/08/26 04:48:23;;;;;;;;;8.00;8.00;;;;;15.10;69.26;101485.50;5056379;28;45468;-70
2021/08/26 04:50:49;;;;;;;;;7.00;7.00;;;;;15.10;69.21;101490.81;5057978;28;45543;-69
2021/08/26 04:53:14;;;;;;;;;8.67;7.33;;;;;15.09;69.37;101494.41;5057693;28;45440;-70
2021/08/26 04:55:39;;;;;;;;;7.00;7.00;;;;;15.10;69.48;101493.44;5058990;28;57076;-70
2021/08/26 04:58:05;;;;;;;;;7.00;6.00;;;;;15.10;69.35;101485.50;5057368;28;45440;-69
2021/08/26 05:00:30;;;;;;;;;4.00;4.00;;;;;15.12;69.59;101494.19;5056270;28;47624;-69
2021/08/26 05:02:55;;;;;;;;;6.00;6.00;;;;;15.12;69.43;101488.88;5056824;28;45530;-69
2021/08/26 05:05:21;;;;;;;;;4.00;4.00;;;;;15.16;69.52;101498.25;5057369;28;46139;-69
2021/08/26 05:07:46;;;;;;;;;8.00;5.00;;;;;15.16;69.35;101492.97;5059044;28;45501;-70
2021/08/26 05:10:11;;;;;;;;;7.33;3.67;;;;;15.20;69.31;101494.38;5057642;28;45451;-69
2021/08/26 05:12:37;;;;;;;;;5.67;5.00;;;;;15.24;69.31;101497.63;5057174;28;45373;-69
2021/08/26 05:15:02;;;;;;;;;5.00;4.00;;;;;15.25;69.13;101494.84;5056494;28;51844;-69
2021/08/26 05:17:28;;;;;;;;;5.67;4.00;;;;;15.26;69.35;101488.59;5058698;28;45423;-69
2021/08/26 05:19:53;;;;;;;;;22.33;15.67;;;;;15.28;69.28;101486.69;5057228;28;45601;-69
2021/08/26 05:22:19;;;;;;;;;53.25;40.50;;;;;15.34;69.37;101493.25;5057165;28;45448;-70
2021/08/26 05:24:44;;;;;;;;;11.00;8.00;;;;;15.39;69.31;101492.88;5055283;28;45726;-68
2021/08/26 05:27:09;;;;;;;;;12.00;9.33;;;;;15.45;69.17;101492.34;5056886;28;45404;-69
2021/08/26 05:29:35;;;;;;;;;14.67;12.67;;;;;15.50;68.68;101498.97;5056608;28;45561;-70
2021/08/26 05:32:00;;;;;;;;;39.00;31.00;;;;;15.56;68.96;101492.31;5059127;28;45739;-70
2021/08/26 05:34:26;;;;;;;;;54.33;41.00;;;;;15.64;68.81;101500.44;5056921;28;46072;-70
2021/08/26 05:36:51;;;;;;;;;6.33;5.67;;;;;15.68;68.75;101499.25;5056761;28;45503;-70
2021/08/26 05:39:17;;;;;;;;;15.67;13.33;;;;;15.73;68.79;101498.84;5055903;28;45446;-70
2021/08/26 05:41:44;;;;;;;;;14.33;10.00;;;;;15.77;68.79;101496.78;5035450;28;45543;-70
2021/08/26 05:44:14;;;;;;;;;5.33;4.33;;;;;15.82;68.58;101494.63;5050205;28;46062;-69
2021/08/26 05:46:40;;;;;;;;;143.75;123.75;;;;;15.86;68.53;101493.38;5056551;27;45417;-69
2021/08/26 05:49:06;;;;;;;;;6.00;4.00;;;;;15.91;68.31;101499.13;5056607;28;45535;-69
2021/08/26 05:51:31;;;;;;;;;11.33;8.00;;;;;15.94;68.29;101496.22;5055612;28;45391;-70
2021/08/26 05:53:56;;;;;;;;;8.00;7.67;;;;;15.97;68.02;101489.81;5056546;28;45673;-69
2021/08/26 05:56:22;;;;;;;;;13.00;11.33;;;;;16.03;68.36;101496.41;5059848;28;45409;-68
2021/08/26 05:58:48;;;;;;;;;33.33;30.00;;;;;16.07;68.46;101497.84;5058764;28;45383;-68
2021/08/26 06:01:13;;;;;;;;;6.00;6.00;;;;;16.11;68.18;101497.44;5059154;28;45415;-68
2021/08/26 06:03:38;;;;;;;;;6.00;4.67;;;;;16.15;68.23;101504.16;5059691;28;46317;-69
2021/08/26 06:06:04;;;;;;;;;4.00;4.00;;;;;16.19;68.30;101495.94;5063160;28;45498;-68
2021/08/26 06:08:30;;;;;;;;;2.33;2.00;;;;;16.17;68.46;101501.38;5057587;28;45459;-69
2021/08/26 06:10:55;;;;;;;;;2.67;2.67;;;;;16.14;68.56;101493.69;5056522;27;45508;-70
2021/08/26 06:13:21;;;;;;;;;4.33;4.00;;;;;16.19;68.44;101491.50;5055364;28;46163;-70
2021/08/26 06:15:46;;;;;;;;;4.00;3.67;;;;;16.22;68.63;101499.16;5034686;28;45460;-70
2021/08/26 06:18:12;;;;;;;;;1.00;1.00;;;;;16.28;68.32;101501.31;5056783;28;45447;-70
2021/08/26 06:20:39;;;;;;;;;2.67;2.33;;;;;16.28;68.15;101493.34;5056322;28;45459;-69
2021/08/26 06:23:04;;;;;;;;;5.33;4.00;;;;;16.30;68.31;101499.34;5056056;28;46158;-70
2021/08/26 06:25:30;;;;;;;;;3.67;3.00;;;;;16.33;68.24;101496.44;5056051;28;45500;-69
2021/08/26 06:27:56;;;;;;;;;6.00;3.00;;;;;16.37;68.03;101501.47;5055424;28;45788;-68
2021/08/26 06:30:22;;;;;;;;;3.67;3.00;;;;;16.38;68.13;101498.69;5055144;28;45318;-70
2021/08/26 06:32:47;;;;;;;;;5.67;3.00;;;;;16.43;68.28;101500.94;5057566;28;45798;-69
2021/08/26 06:35:13;;;;;;;;;1.33;0.33;;;;;16.49;68.06;101505.72;5056016;28;45442;-69
2021/08/26 06:37:38;;;;;;;;;3.33;3.33;;;;;16.58;67.58;101512.88;5054274;28;45562;-70
2021/08/26 06:40:04;;;;;;;;;5.00;3.67;;;;;16.66;67.91;101497.09;5055455;28;45566;-69
2021/08/26 06:42:29;;;;;;;;;3.67;2.00;;;;;16.77;67.51;101504.09;5054392;28;47163;-70
2021/08/26 06:44:55;;;;;;;;;2.33;2.00;;;;;16.85;67.28;101502.59;5057998;28;45255;-70
2021/08/26 06:47:20;;;;;;;;;2.33;2.33;;;;;16.91;67.37;101489.66;5055393;28;45237;-69
2021/08/26 06:49:46;;;;;;;;;0.67;0.33;;;;;16.92;67.07;101491.34;5055831;28;45408;-69
2021/08/26 06:52:11;;;;;;;;;1.67;1.33;;;;;16.94;67.34;101500.00;5056639;28;45498;-68
2021/08/26 06:54:37;;;;;;;;;2.00;0.67;;;;;16.95;67.28;101490.22;5057614;28;45320;-67
2021/08/26 06:57:04;;;;;;;;;4.67;1.67;;;;;17.05;67.12;101500.88;5055636;28;45475;-68
2021/08/26 06:59:30;;;;;;;;;3.67;2.33;;;;;17.11;67.21;101495.84;5056182;28;45321;-69
2021/08/26 07:01:55;;;;;;;;;3.67;2.33;;;;;17.15;67.20;101497.25;5055463;28;46221;-68
2021/08/26 07:04:20;;;;;;;;;1.33;1.00;;;;;17.15;66.97;101491.06;5056415;28;50051;-68
2021/08/26 07:06:46;;;;;;;;;2.25;2.00;;;;;17.16;67.07;101500.72;5056625;28;45397;-68
2021/08/26 07:09:11;;;;;;;;;1.67;1.67;;;;;17.18;66.86;101496.13;5058029;28;45534;-68
2021/08/26 07:11:36;;;;;;;;;2.50;2.50;;;;;17.23;67.21;101491.25;5056954;28;45563;-68
2021/08/26 07:14:02;;;;;;;;;2.33;0.33;;;;;17.31;66.98;101496.69;5058582;28;45617;-68
2021/08/26 07:16:27;;;;;;;;;4.33;3.33;;;;;17.36;66.86;101487.44;5057506;28;45369;-67
2021/08/26 07:18:53;;;;;;;;;38.33;33.00;;;;;17.51;66.78;101488.72;5055667;28;45606;-66
2021/08/26 07:21:18;;;;;;;;;2.33;2.33;;;;;17.68;66.49;101497.78;5056770;28;46241;-66
2021/08/26 07:23:43;;;;;;;;;5.67;3.33;;;;;17.77;66.16;101485.47;5057651;28;50497;-68
2021/08/26 07:26:08;;;;;;;;;12.00;7.33;;;;;17.73;65.83;101492.06;5040465;28;45424;-67
2021/08/26 07:28:34;;;;;;;;;79.50;63.25;;;;;17.72;66.35;101490.38;5056812;28;46213;-66
2021/08/26 07:30:59;;;;;;;;;6.00;4.00;;;;;17.75;66.14;101490.09;5057578;28;46307;-69
2021/08/26 07:33:25;;;;;;;;;4.00;3.00;;;;;17.83;66.12;101489.38;5069626;28;45445;-70
2021/08/26 07:35:50;;;;;;;;;3.00;2.00;;;;;17.90;65.93;101480.66;5058487;28;45799;-69
2021/08/26 07:38:16;;;;;;;;;2.75;2.50;;;;;18.14;65.26;101482.06;5060190;28;45371;-68
2021/08/26 07:40:41;;;;;;;;;2.00;2.00;;;;;18.20;65.10;101497.44;5057722;28;45595;-68
2021/08/26 07:43:06;;;;;;;;;2.75;2.00;;;;;18.21;65.10;101485.78;5058543;28;45513;-68
2021/08/26 07:45:32;;;;;;;;;3.50;1.00;;;;;18.20;65.05;101486.81;5057268;28;45984;-69
2021/08/26 07:47:57;;;;;;;;;1.00;1.00;;;;;18.27;64.67;101498.50;5058335;28;45281;-68
2021/08/26 07:50:22;;;;;;;;;4.00;1.75;;;;;18.29;64.89;101495.69;5058197;28;45372;-70
2021/08/26 07:52:48;;;;;;;;;3.50;2.00;;;;;18.35;64.74;101494.28;5052950;28;45600;-69
2021/08/26 07:55:14;;;;;;;;;2.00;2.00;;;;;18.39;64.90;101490.34;5057101;28;45254;-70
2021/08/26 07:57:39;;;;;;;;;4.25;2.50;;;;;18.46;64.69;101492.28;5057368;28;45218;-69
2021/08/26 08:00:06;;;;;;;;;2.50;2.50;;;;;18.59;64.65;101486.63;5057748;28;46517;-69
2021/08/26 08:02:31;;;;;;;;;4.25;2.00;;;;;18.71;64.46;101494.38;5057799;28;45520;-70
2021/08/26 08:04:56;;;;;;;;;4.00;2.25;;;;;18.78;64.04;101495.47;5057874;28;45526;-70
2021/08/26 08:07:22;;;;;;;;;3.25;3.25;;;;;18.87;63.77;101486.59;5060570;28;45516;-69
2021/08/26 08:09:47;;;;;;;;;5.50;4.00;;;;;18.96;63.51;101488.38;5058298;28;46852;-69
2021/08/26 08:12:13;;;;;;;;;4.00;3.00;;;;;18.98;63.44;101484.72;5057863;28;45491;-69
2021/08/26 08:14:39;;;;;;;;;3.00;3.00;;;;;18.96;63.25;101485.72;5057593;28;45344;-69
2021/08/26 08:17:05;;;;;;;;;2.75;2.75;;;;;19.06;63.30;101484.84;5056511;28;45530;-68
2021/08/26 08:19:30;;;;;;;;;5.00;2.00;;;;;19.17;63.03;101484.59;5057742;28;45433;-69
2021/08/26 08:21:56;;;;;;;;;2.50;2.25;;;;;19.28;62.46;101491.53;5056719;28;45264;-69
2021/08/26 08:24:21;;;;;;;;;3.50;3.00;;;;;19.36;62.48;101494.25;5058461;28;45459;-68
2021/08/26 08:26:47;;;;;;;;;4.75;3.00;;;;;19.43;62.40;101489.13;5060098;27;45209;-68
2021/08/26 08:29:12;;;;;;;;;5.00;2.50;;;;;19.50;62.08;101490.22;5064179;28;46407;-68
2021/08/26 08:31:37;;;;;;;;;1.50;1.50;;;;;19.59;61.79;101494.63;5057266;28;45494;-68
2021/08/26 08:34:03;;;;;;;;;3.00;3.00;;;;;19.69;61.28;101499.00;5057008;28;45921;-69
2021/08/26 08:36:28;;;;;;;;;3.00;3.00;;;;;19.74;61.19;101491.38;5057102;28;45323;-67
2021/08/26 08:38:54;;;;;;;;;2.25;2.25;;;;;19.73;61.56;101490.56;5056356;28;47117;-68
2021/08/26 08:41:21;;;;;;;;;5.25;2.00;;;;;19.78;60.78;101490.06;5057237;28;45469;-69
2021/08/26 08:43:48;;;;;;;;;3.00;3.00;;;;;19.81;61.15;101497.78;5057343;28;45562;-67
2021/08/26 08:46:14;;;;;;;;;2.75;2.00;;;;;19.80;60.39;101493.44;5057542;28;45402;-67
2021/08/26 08:48:41;;;;;;;;;5.00;4.00;;;;;19.69;60.60;101494.50;5056385;28;46016;-68
2021/08/26 08:51:11;;;;;;;;;5.50;3.00;;;;;19.59;61.50;101499.94;5057207;28;45455;-69
2021/08/26 08:53:37;;;;;;;;;4.00;4.00;;;;;19.60;61.56;101500.78;5057167;28;45612;-67
2021/08/26 08:56:05;;;;;;;;;4.50;3.75;;;;;19.65;60.88;101498.47;5056771;28;45373;-68
2021/08/26 08:58:38;;;;;;;;;6.75;4.00;;;;;19.65;61.23;101497.66;5057245;28;46414;-67
2021/08/26 09:01:03;;;;;;;;;3.75;3.50;;;;;19.66;61.09;101489.50;5056374;28;45427;-69
2021/08/26 09:03:28;;;;;;;;;5.75;4.00;;;;;19.67;61.60;101490.31;5055076;28;45457;-68
2021/08/26 09:05:59;;;;;;;;;5.00;4.25;;;;;19.73;61.26;101487.03;5038247;28;45515;-68
2021/08/26 09:08:29;;;;;;;;;7.00;7.00;;;;;19.74;61.45;101488.72;5056603;28;46348;-66
2021/08/26 09:11:13;;;;;;;;;4.50;4.25;;;;;19.75;61.39;101487.72;5056405;27;45588;-66
2021/08/26 09:13:40;;;;;;;;;11.00;10.00;;;;;19.83;61.21;101481.66;5056976;28;45294;-67
2021/08/26 09:16:05;;;;;;;;;3.25;3.25;;;;;19.91;61.59;101489.69;5056553;28;45392;-67
2021/08/26 09:18:31;;;;;;;;;3.50;3.50;;;;;20.02;61.51;101488.59;5055712;28;46226;-67
2021/08/26 09:20:59;;;;;;;;;9.33;7.67;;;;;20.08;60.84;101493.28;5056071;28;45523;-68
2021/08/26 09:23:30;;;;;;;;;8.75;7.00;;;;;20.07;60.92;101496.94;5055140;27;45438;-67
2021/08/26 09:26:18;;;;;;;;;39.67;30.00;;;;;19.99;61.27;101494.25;5056269;28;45403;-68
2021/08/26 09:28:44;;;;;;;;;46.00;31.33;;;;;19.92;60.86;101494.03;5056319;28;47201;-69
2021/08/26 09:31:18;;;;;;;;;49.67;40.67;;;;;19.90;60.78;101494.19;5056434;28;45379;-69
2021/08/26 09:34:05;;;;;;;;;83.50;66.25;;;;;19.94;59.95;101494.69;5055545;28;45319;-71
2021/08/26 09:36:58;;;;;;;;;9.00;5.00;;;;;20.10;60.06;101491.31;5055006;28;45434;-71
2021/08/26 09:39:27;;;;;;;;;160.75;140.75;;;;;20.27;58.55;101485.06;5053364;28;45414;-71
2021/08/26 09:41:52;;;;;;;;;6.75;5.75;;;;;20.41;59.99;101482.81;5058226;27;45407;-70
2021/08/26 09:44:44;;;;;;;;;69.00;51.33;;;;;20.46;58.72;101477.81;5056357;28;47197;-71
2021/08/26 09:47:09;;;;;;;;;26.33;22.33;;;;;20.44;59.34;101480.63;5052041;28;45502;-74
2021/08/26 09:49:40;;;;;;;;;12.00;9.75;;;;;20.41;60.32;101483.63;5037825;28;47294;-72
2021/08/26 09:52:11;;;;;;;;;66.50;50.00;;;;;20.33;59.15;101482.75;5057662;28;45380;-71
2021/08/26 09:54:38;;;;;;;;;3.75;3.25;;;;;20.26;59.96;101480.75;5050892;28;45409;-71
2021/08/26 09:57:05;;;;;;;;;3.25;2.00;;;;;20.29;60.61;101482.25;5055923;28;45290;-70
2021/08/26 09:59:48;;;;;;;;;6.00;4.75;;;;;20.15;60.38;101473.00;5055909;27;46935;-70
2021/08/26 10:02:14;;;;;;;;;19.33;18.67;;;;;20.11;60.58;101482.31;5063397;28;45547;-71
2021/08/26 10:04:41;;;;;;;;;48.00;37.67;;;;;20.23;59.12;101481.03;5062900;28;45409;-70
2021/08/26 10:07:06;;;;;;;;;1.75;1.75;;;;;20.32;60.15;101483.72;5055652;28;45374;-71
2021/08/26 10:09:32;;;;;;;;;3.50;2.50;;;;;20.26;60.49;101486.06;5055334;28;45495;-70
2021/08/26 10:11:58;;;;;;;;;32.33;23.67;;;;;20.26;59.82;101486.06;5047521;28;45565;-71
2021/08/26 10:14:24;;;;;;;;;39.00;32.33;;;;;20.36;59.24;101469.09;5061681;28;45311;-71
2021/08/26 10:16:50;;;;;;;;;21.67;18.00;;;;;20.57;58.58;101474.84;5055511;28;45294;-70
2021/08/26 10:19:16;;;;;;;;;2.00;2.00;;;;;20.79;59.63;101469.94;5063753;28;45586;-71
2021/08/26 10:21:45;;;;;;;;;2.00;2.00;;;;;20.91;60.09;101468.63;5055032;28;45346;-71
2021/08/26 10:24:12;;;;;;;;;5.50;1.00;;;;;20.89;59.40;101465.28;5055401;28;45551;-74
2021/08/26 10:26:41;;;;;;;;;1.00;1.00;;;;;20.73;59.19;101466.09;5055168;28;45428;-71
2021/08/26 10:29:08;;;;;;;;;1.00;1.00;;;;;20.53;59.81;101464.66;5055999;28;46136;-69
2021/08/26 10:31:35;;;;;;;;;1.00;1.00;;;;;20.37;60.47;101465.41;5055252;28;45435;-72
2021/08/26 10:34:20;;;;;;;;;1.00;1.00;;;;;20.22;60.79;101452.69;5055604;28;45474;-71
2021/08/26 10:36:55;;;;;;;;;5.00;4.50;;;;;20.30;60.54;101467.91;5051426;28;45482;-70
2021/08/26 10:39:41;;;;;;;;;1.00;1.00;;;;;20.47;60.63;101462.63;5056324;28;45634;-71
2021/08/26 10:42:32;;;;;;;;;1.00;1.00;;;;;20.60;60.24;101461.19;5056242;27;45517;-70
2021/08/26 10:45:28;;;;;;;;;3.50;2.00;;;;;20.68;59.60;101470.19;5054751;28;45278;-72
2021/08/26 10:47:54;;;;;;;;;1.00;1.00;;;;;20.80;60.02;101470.75;5056689;28;45626;-70
2021/08/26 10:50:27;;;;;;;;;1.00;1.00;;;;;20.79;59.15;101469.94;5053597;28;45538;-70
2021/08/26 10:53:00;;;;;;;;;4.00;3.00;;;;;20.90;58.63;101458.09;5045587;28;45371;-69
2021/08/26 10:55:46;;;;;;;;;3.00;2.50;;;;;21.05;58.37;101458.31;5056552;28;45328;-70
2021/08/26 10:58:20;;;;;;;;;3.25;2.00;;;;;21.04;58.70;101461.97;5056427;28;45397;-69
2021/08/26 11:00:47;;;;;;;;;3.00;2.00;;;;;20.81;59.49;101465.28;5054972;28;47471;-70
2021/08/26 11:03:33;;;;;;;;;1.00;1.00;;;;;20.61;60.03;101465.53;5040703;28;46072;-71
2021/08/26 11:06:20;;;;;;;;;1.75;1.00;;;;;20.30;60.36;101480.41;5058564;28;46855;-71
2021/08/26 11:08:47;;;;;;;;;0.00;0.00;;;;;19.99;61.17;101478.25;5049250;28;45516;-70
2021/08/26 11:11:28;;;;;;;;;2.00;0.00;;;;;19.78;62.08;101477.59;5058422;28;45271;-70
2021/08/26 11:14:02;;;;;;;;;1.00;0.50;;;;;19.76;62.51;101484.09;5058606;28;47765;-72
2021/08/26 11:16:27;;;;;;;;;1.00;1.00;;;;;19.78;62.48;101487.41;5058564;28;45538;-71
2021/08/26 11:18:55;;;;;;;;;1.00;1.00;;;;;19.82;62.42;101488.78;5058516;28;45408;-72
2021/08/26 11:21:46;;;;;;;;;2.00;1.00;;;;;19.76;61.91;101484.91;5055421;28;46640;-70
2021/08/26 11:24:14;;;;;;;;;1.75;1.75;;;;;19.68;61.97;101487.53;5058390;28;45333;-70